createdAt,value
2023-04-08T00:01:51.011Z,100.00
2023-04-08T00:04:28.361Z,100.00
2023-04-08T00:06:58.021Z,100.00
2023-04-08T00:09:27.729Z,100.00
2023-04-08T00:11:58.190Z,100.00
2023-04-08T00:14:38.124Z,100.00
2023-04-08T00:17:08.610Z,100.00
2023-04-08T00:19:51.888Z,100.00
2023-04-08T00:22:20.193Z,100.00
2023-04-08T00:24:51.391Z,100.00
2023-04-08T00:27:25.279Z,100.00
2023-04-08T00:30:00.266Z,100.00
2023-04-08T00:32:29.956Z,100.00
2023-04-08T00:35:00.133Z,100.00
2023-04-08T00:37:31.980Z,100.00
2023-04-08T00:40:02.226Z,100.00
2023-04-08T00:42:33.501Z,100.00
2023-04-08T00:45:06.075Z,100.00
2023-04-08T00:47:39.846Z,100.00
2023-04-08T00:50:17.283Z,100.00
2023-04-08T00:52:50.422Z,100.00
2023-04-08T00:55:21.357Z,100.00
2023-04-08T00:57:58.198Z,100.00
2023-04-08T01:00:46.527Z,100.00
2023-04-08T01:03:22.606Z,100.00
2023-04-08T01:06:00.201Z,100.00
2023-04-08T01:08:32.497Z,100.00
2023-04-08T01:11:07.875Z,100.00
2023-04-08T01:13:40.752Z,100.00
2023-04-08T01:16:20.355Z,100.00
2023-04-08T01:18:59.245Z,100.00
2023-04-08T01:21:32.186Z,100.00
2023-04-08T01:24:21.265Z,100.00
2023-04-08T01:26:54.015Z,100.00
2023-04-08T01:29:22.292Z,100.00
2023-04-08T01:32:00.040Z,100.00
2023-04-08T01:34:31.185Z,100.00
2023-04-08T01:37:01.234Z,100.00
2023-04-08T01:39:31.597Z,100.00
2023-04-08T01:42:08.982Z,100.00
2023-04-08T01:44:38.308Z,100.00
2023-04-08T01:47:06.868Z,100.00
2023-04-08T01:49:35.571Z,100.00
2023-04-08T01:52:18.364Z,100.00
2023-04-08T01:54:48.818Z,100.00
2023-04-08T01:57:29.988Z,100.00
2023-04-08T02:00:05.749Z,100.00
2023-04-08T02:02:55.664Z,100.00
2023-04-08T02:05:27.987Z,100.00
2023-04-08T02:07:56.590Z,100.00
2023-04-08T02:10:26.936Z,100.00
2023-04-08T02:12:59.906Z,100.00
2023-04-08T02:15:33.336Z,100.00
2023-04-08T02:18:08.638Z,100.00
2023-04-08T02:20:40.056Z,100.00
2023-04-08T02:23:12.248Z,100.00
2023-04-08T02:25:42.210Z,100.00
2023-04-08T02:28:14.516Z,100.00
2023-04-08T02:30:45.253Z,100.00
2023-04-08T02:33:19.276Z,100.00
2023-04-08T02:35:50.115Z,100.00
2023-04-08T02:38:35.292Z,100.00
2023-04-08T02:41:04.493Z,100.00
2023-04-08T02:43:35.207Z,100.00
2023-04-08T02:46:08.531Z,100.00
2023-04-08T02:48:38.026Z,100.00
2023-04-08T02:51:08.367Z,100.00
2023-04-08T02:53:37.599Z,100.00
2023-04-08T02:56:16.226Z,100.00
2023-04-08T02:58:53.383Z,100.00
2023-04-08T03:01:24.805Z,100.00
2023-04-08T03:03:53.549Z,100.00
2023-04-08T03:06:27.260Z,100.00
2023-04-08T03:08:56.669Z,100.00
2023-04-08T03:11:24.634Z,100.00
2023-04-08T03:13:54.619Z,100.00
2023-04-08T03:16:33.022Z,100.00
2023-04-08T03:19:03.921Z,100.00
2023-04-08T03:21:33.599Z,100.00
2023-04-08T03:24:03.864Z,100.00
2023-04-08T03:26:35.388Z,100.00
2023-04-08T03:29:11.584Z,100.00
2023-04-08T03:31:53.778Z,100.00
2023-04-08T03:34:24.609Z,100.00
2023-04-08T03:36:53.980Z,100.00
2023-04-08T03:39:22.566Z,100.00
2023-04-08T03:41:52.111Z,100.00
2023-04-08T03:44:26.283Z,100.00
2023-04-08T03:46:55.887Z,100.00
2023-04-08T03:49:24.978Z,100.00
2023-04-08T03:51:56.884Z,100.00
2023-04-08T03:54:26.051Z,100.00
2023-04-08T03:57:04.477Z,100.00
2023-04-08T03:59:37.628Z,100.00
2023-04-08T04:02:07.222Z,100.00
2023-04-08T04:04:38.054Z,100.00
2023-04-08T04:07:13.751Z,100.00
2023-04-08T04:09:45.508Z,100.00
2023-04-08T04:12:17.360Z,100.00
2023-04-08T04:14:52.480Z,100.00
2023-04-08T04:17:23.696Z,100.00
2023-04-08T04:19:54.208Z,100.00
2023-04-08T04:22:22.314Z,100.00
2023-04-08T04:24:55.336Z,100.00
2023-04-08T04:27:24.525Z,100.00
2023-04-08T04:29:57.717Z,100.00
2023-04-08T04:32:29.511Z,100.00
2023-04-08T04:35:00.502Z,100.00
2023-04-08T04:37:29.764Z,100.00
2023-04-08T04:40:00.260Z,100.00
2023-04-08T04:42:31.583Z,100.00
2023-04-08T04:45:08.183Z,100.00
2023-04-08T04:47:37.691Z,100.00
2023-04-08T04:50:14.820Z,100.00
2023-04-08T04:52:46.674Z,100.00
2023-04-08T04:55:16.907Z,100.00
2023-04-08T04:57:46.628Z,100.00
2023-04-08T05:00:17.779Z,100.00
2023-04-08T05:02:47.670Z,100.00
2023-04-08T05:05:16.601Z,100.00
2023-04-08T05:07:48.596Z,100.00
2023-04-08T05:10:19.466Z,100.00
2023-04-08T05:12:49.034Z,100.00
2023-04-08T05:15:41.260Z,100.00
2023-04-08T05:18:18.158Z,100.00
2023-04-08T05:20:47.797Z,100.00
2023-04-08T05:23:26.565Z,100.00
2023-04-08T05:26:03.785Z,100.00
2023-04-08T05:28:32.946Z,100.00
2023-04-08T05:31:06.612Z,100.00
2023-04-08T05:33:37.097Z,100.00
2023-04-08T05:36:06.946Z,100.00
2023-04-08T05:38:38.661Z,100.00
2023-04-08T05:41:10.112Z,100.00
2023-04-08T05:43:38.931Z,100.00
2023-04-08T05:46:14.486Z,100.00
2023-04-08T05:48:44.947Z,100.00
2023-04-08T05:51:18.644Z,100.00
2023-04-08T05:53:47.792Z,100.00
2023-04-08T05:56:19.183Z,100.00
2023-04-08T05:58:51.223Z,100.00
2023-04-08T06:01:23.102Z,100.00
2023-04-08T06:03:52.973Z,100.00
2023-04-08T06:06:22.290Z,100.00
2023-04-08T06:08:52.653Z,100.00
2023-04-08T06:11:22.365Z,100.00
2023-04-08T06:13:52.857Z,100.00
2023-04-08T06:16:25.539Z,100.00
2023-04-08T06:18:59.271Z,100.00
2023-04-08T06:21:27.861Z,100.00
2023-04-08T06:23:56.472Z,100.00
2023-04-08T06:26:27.879Z,100.00
2023-04-08T06:28:58.653Z,100.00
2023-04-08T06:31:29.392Z,100.00
2023-04-08T06:33:59.736Z,100.00
2023-04-08T06:36:29.623Z,100.00
2023-04-08T06:39:05.140Z,100.00
2023-04-08T06:41:40.644Z,100.00
2023-04-08T06:44:25.086Z,100.00
2023-04-08T06:46:58.429Z,100.00
2023-04-08T06:49:28.893Z,100.00
2023-04-08T06:51:58.220Z,100.00
2023-04-08T06:54:27.524Z,100.00
2023-04-08T06:57:05.991Z,100.00
2023-04-08T06:59:38.024Z,100.00
2023-04-08T07:02:11.474Z,100.00
2023-04-08T07:04:45.519Z,100.00
2023-04-08T07:07:19.670Z,99.33
2023-04-08T07:09:48.781Z,100.00
2023-04-08T07:12:20.345Z,98.48
2023-04-08T07:14:48.612Z,99.46
2023-04-08T07:17:22.380Z,99.76
2023-04-08T07:20:01.505Z,98.21
2023-04-08T07:22:42.669Z,97.93
2023-04-08T07:25:12.736Z,99.42
2023-04-08T07:27:43.574Z,99.25
2023-04-08T07:30:22.328Z,98.48
2023-04-08T07:32:57.059Z,99.80
2023-04-08T07:35:32.192Z,100.00
2023-04-08T07:38:09.610Z,100.00
2023-04-08T07:40:41.485Z,100.00
2023-04-08T07:43:17.280Z,100.00
2023-04-08T07:45:46.112Z,100.00
2023-04-08T07:48:30.019Z,98.98
2023-04-08T07:51:09.860Z,100.00
2023-04-08T07:53:42.704Z,99.94
2023-04-08T07:56:13.837Z,99.80
2023-04-08T07:58:44.084Z,100.00
2023-04-08T08:01:22.350Z,100.00
2023-04-08T08:04:09.105Z,100.00
2023-04-08T08:06:45.610Z,100.00
2023-04-08T08:09:22.642Z,100.00
2023-04-08T08:11:54.936Z,100.00
2023-04-08T08:14:25.608Z,99.46
2023-04-08T08:16:54.840Z,99.74
2023-04-08T08:19:28.886Z,100.00
2023-04-08T08:22:05.032Z,99.94
2023-04-08T08:24:41.330Z,100.00
2023-04-08T08:27:23.237Z,100.00
2023-04-08T08:29:53.319Z,100.00
2023-04-08T08:32:21.629Z,100.00
2023-04-08T08:34:52.372Z,99.68
2023-04-08T08:37:22.670Z,100.00
2023-04-08T08:39:59.232Z,100.00
2023-04-08T08:42:36.448Z,98.74
2023-04-08T08:45:17.754Z,98.53
2023-04-08T08:47:50.364Z,99.56
2023-04-08T08:50:25.542Z,100.00
2023-04-08T08:52:57.569Z,100.00
2023-04-08T08:55:44.812Z,100.00
2023-04-08T08:58:20.617Z,100.00
2023-04-08T09:00:57.193Z,100.00
2023-04-08T09:03:31.363Z,100.00
2023-04-08T09:06:06.466Z,100.00
2023-04-08T09:08:44.803Z,100.00
2023-04-08T09:11:16.368Z,100.00
2023-04-08T09:13:46.855Z,100.00
2023-04-08T09:16:18.557Z,100.00
2023-04-08T09:18:58.829Z,100.00
2023-04-08T09:21:34.916Z,100.00
2023-04-08T09:24:05.115Z,100.00
2023-04-08T09:26:41.210Z,98.64
2023-04-08T09:29:25.469Z,100.00
2023-04-08T09:31:58.054Z,100.00
2023-04-08T09:34:32.545Z,100.00
2023-04-08T09:37:05.553Z,100.00
2023-04-08T09:39:42.284Z,100.00
2023-04-08T09:42:20.616Z,100.00
2023-04-08T09:44:51.303Z,100.00
2023-04-08T09:47:22.191Z,100.00
2023-04-08T09:49:53.930Z,100.00
2023-04-08T09:52:36.198Z,100.00
2023-04-08T09:55:07.085Z,100.00
2023-04-08T09:57:45.222Z,100.00
2023-04-08T10:00:17.599Z,99.82
2023-04-08T10:02:57.539Z,99.58
2023-04-08T10:05:27.221Z,98.81
2023-04-08T10:08:04.122Z,97.85
2023-04-08T10:10:41.658Z,99.38
2023-04-08T10:13:12.542Z,99.15
2023-04-08T10:15:43.343Z,100.00
2023-04-08T10:18:42.485Z,100.00
2023-04-08T10:21:35.580Z,99.12
2023-04-08T10:24:10.671Z,99.28
2023-04-08T10:26:47.904Z,99.79
2023-04-08T10:29:37.843Z,100.00
2023-04-08T10:32:07.098Z,100.00
2023-04-08T10:34:37.871Z,99.20
2023-04-08T10:37:11.124Z,100.00
2023-04-08T10:39:53.239Z,99.92
2023-04-08T10:42:31.242Z,100.00
2023-04-08T10:45:04.808Z,100.00
2023-04-08T10:47:37.961Z,100.00
2023-04-08T10:50:18.265Z,100.00
2023-04-08T10:52:53.416Z,100.00
2023-04-08T10:55:34.667Z,100.00
2023-04-08T10:58:10.563Z,100.00
2023-04-08T11:00:42.242Z,100.00
2023-04-08T11:03:13.728Z,100.00
2023-04-08T11:05:45.353Z,100.00
2023-04-08T11:08:16.168Z,100.00
2023-04-08T11:10:57.000Z,100.00
2023-04-08T11:13:26.039Z,100.00
2023-04-08T11:16:16.596Z,100.00
2023-04-08T11:18:48.370Z,98.12
2023-04-08T11:21:30.569Z,98.25
2023-04-08T11:23:59.523Z,98.29
2023-04-08T11:26:42.191Z,96.66
2023-04-08T11:29:20.871Z,98.22
2023-04-08T11:31:51.940Z,98.30
2023-04-08T11:34:30.223Z,96.31
2023-04-08T11:37:02.517Z,96.23
2023-04-08T11:39:30.915Z,94.01
2023-04-08T11:42:04.142Z,92.14
2023-04-08T11:44:38.158Z,92.61
2023-04-08T11:47:07.834Z,93.67
2023-04-08T11:49:48.397Z,94.33
2023-04-08T11:52:20.109Z,93.56
2023-04-08T11:54:50.323Z,93.44
2023-04-08T11:57:36.531Z,90.19
2023-04-08T12:00:14.048Z,92.02
2023-04-08T12:02:50.822Z,91.64
2023-04-08T12:05:22.674Z,92.51
2023-04-08T12:08:00.582Z,92.41
2023-04-08T12:10:44.114Z,91.17
2023-04-08T12:13:25.339Z,92.77
2023-04-08T12:15:56.488Z,94.01
2023-04-08T12:18:27.247Z,91.99
2023-04-08T12:20:56.042Z,92.63
2023-04-08T12:23:26.595Z,92.55
2023-04-08T12:25:55.093Z,93.74
2023-04-08T12:28:27.588Z,93.65
2023-04-08T12:30:59.725Z,92.92
2023-04-08T12:33:28.157Z,93.09
2023-04-08T12:36:06.022Z,92.88
2023-04-08T12:38:39.989Z,93.18
2023-04-08T12:41:08.238Z,93.78
2023-04-08T12:43:40.294Z,92.13
2023-04-08T12:46:11.711Z,92.41
2023-04-08T12:48:47.367Z,92.09
2023-04-08T12:51:22.755Z,92.74
2023-04-08T12:53:51.076Z,91.46
2023-04-08T12:56:23.096Z,89.56
2023-04-08T12:58:59.410Z,89.40
2023-04-08T13:01:31.514Z,90.53
2023-04-08T13:04:11.237Z,89.78
2023-04-08T13:06:41.134Z,89.42
2023-04-08T13:09:10.229Z,89.04
2023-04-08T13:11:45.488Z,87.75
2023-04-08T13:14:20.622Z,88.97
2023-04-08T13:16:48.919Z,89.23
2023-04-08T13:19:21.686Z,89.14
2023-04-08T13:21:56.112Z,89.06
2023-04-08T13:24:27.136Z,87.09
2023-04-08T13:26:58.558Z,87.62
2023-04-08T13:29:31.478Z,87.49
2023-04-08T13:32:02.369Z,87.50
2023-04-08T13:34:31.088Z,86.67
2023-04-08T13:37:07.558Z,86.34
2023-04-08T13:39:36.196Z,84.81
2023-04-08T13:42:05.469Z,86.46
2023-04-08T13:44:40.475Z,87.24
2023-04-08T13:47:08.540Z,86.63
2023-04-08T13:49:39.691Z,86.94
2023-04-08T13:52:08.856Z,87.29
2023-04-08T13:54:37.539Z,86.24
2023-04-08T13:57:12.875Z,86.79
2023-04-08T13:59:46.210Z,85.47
2023-04-08T14:02:16.761Z,85.07
2023-04-08T14:04:50.862Z,84.99
2023-04-08T14:07:28.477Z,84.69
2023-04-08T14:09:57.296Z,84.06
2023-04-08T14:12:26.755Z,83.71
2023-04-08T14:14:58.680Z,84.08
2023-04-08T14:17:30.350Z,82.43
2023-04-08T14:20:01.198Z,82.92
2023-04-08T14:22:31.003Z,82.19
2023-04-08T14:25:01.429Z,84.01
2023-04-08T14:27:31.022Z,83.65
2023-04-08T14:30:01.379Z,86.22
2023-04-08T14:32:33.769Z,86.27
2023-04-08T14:35:04.449Z,85.73
2023-04-08T14:37:49.865Z,84.25
2023-04-08T14:40:23.049Z,85.72
2023-04-08T14:42:54.810Z,85.26
2023-04-08T14:45:24.679Z,85.70
2023-04-08T14:47:56.400Z,84.97
2023-04-08T14:50:29.925Z,84.61
2023-04-08T14:52:59.604Z,84.85
2023-04-08T14:55:28.858Z,83.83
2023-04-08T14:58:01.157Z,85.32
2023-04-08T15:00:33.839Z,85.02
2023-04-08T15:03:03.543Z,84.40
2023-04-08T15:05:36.556Z,84.06
2023-04-08T15:08:08.993Z,83.87
2023-04-08T15:10:37.016Z,82.96
2023-04-08T15:13:06.575Z,82.28
2023-04-08T15:15:42.483Z,83.27
2023-04-08T15:18:21.261Z,84.35
2023-04-08T15:20:52.914Z,84.07
2023-04-08T15:23:23.179Z,83.57
2023-04-08T15:25:53.356Z,83.11
2023-04-08T15:28:28.032Z,84.02
2023-04-08T15:31:00.020Z,83.77
2023-04-08T15:33:28.554Z,84.08
2023-04-08T15:36:05.213Z,84.33
2023-04-08T15:38:34.617Z,84.85
2023-04-08T15:41:02.976Z,84.84
2023-04-08T15:43:32.067Z,82.82
2023-04-08T15:46:04.828Z,84.45
2023-04-08T15:48:35.438Z,86.16
2023-04-08T15:51:08.614Z,84.27
2023-04-08T15:53:37.674Z,86.25
2023-04-08T15:56:10.736Z,85.93
2023-04-08T15:58:42.654Z,85.60
2023-04-08T16:01:17.358Z,85.30
2023-04-08T16:03:46.308Z,84.80
2023-04-08T16:06:20.150Z,84.29
2023-04-08T16:08:54.639Z,85.43
2023-04-08T16:11:24.302Z,85.03
2023-04-08T16:13:53.571Z,85.46
2023-04-08T16:16:26.860Z,84.80
2023-04-08T16:19:00.224Z,85.65
2023-04-08T16:21:30.609Z,86.61
2023-04-08T16:24:07.642Z,86.59
2023-04-08T16:26:38.736Z,86.82
2023-04-08T16:29:13.270Z,86.22
2023-04-08T16:31:53.201Z,86.32
2023-04-08T16:34:27.213Z,86.82
2023-04-08T16:36:55.590Z,87.21
2023-04-08T16:39:32.655Z,86.96
2023-04-08T16:42:01.995Z,87.37
2023-04-08T16:44:32.604Z,88.72
2023-04-08T16:47:08.101Z,87.65
2023-04-08T16:49:37.207Z,88.57
2023-04-08T16:52:06.586Z,89.53
2023-04-08T16:54:36.684Z,89.44
2023-04-08T16:57:07.993Z,91.58
2023-04-08T16:59:38.604Z,93.38
2023-04-08T17:02:16.447Z,93.14
2023-04-08T17:04:45.527Z,93.50
2023-04-08T17:07:23.081Z,95.52
2023-04-08T17:09:53.108Z,95.53
2023-04-08T17:12:22.737Z,96.16
2023-04-08T17:14:51.718Z,97.78
2023-04-08T17:17:26.741Z,96.20
2023-04-08T17:19:58.133Z,96.89
2023-04-08T17:22:29.602Z,98.59
2023-04-08T17:25:01.616Z,98.32
2023-04-08T17:27:31.228Z,98.86
2023-04-08T17:30:01.437Z,99.80
2023-04-08T17:32:32.201Z,98.31
2023-04-08T17:35:03.425Z,98.46
2023-04-08T17:37:34.776Z,97.26
2023-04-08T17:40:05.753Z,97.63
2023-04-08T17:42:35.276Z,98.58
2023-04-08T17:45:07.061Z,98.73
2023-04-08T17:47:41.317Z,99.70
2023-04-08T17:50:14.678Z,99.85
2023-04-08T17:52:49.766Z,100.00
2023-04-08T17:55:20.224Z,99.15
2023-04-08T17:57:50.555Z,99.37
2023-04-08T18:00:22.506Z,99.96
2023-04-08T18:02:53.471Z,100.00
2023-04-08T18:05:23.297Z,100.00
2023-04-08T18:07:52.748Z,100.00
2023-04-08T18:10:30.756Z,100.00
2023-04-08T18:13:11.363Z,100.00
2023-04-08T18:15:41.368Z,100.00
2023-04-08T18:18:12.397Z,99.62
2023-04-08T18:20:44.718Z,100.00
2023-04-08T18:23:14.262Z,100.00
2023-04-08T18:25:50.701Z,100.00
2023-04-08T18:28:26.470Z,100.00
2023-04-08T18:30:57.739Z,100.00
2023-04-08T18:33:34.260Z,100.00
2023-04-08T18:36:10.671Z,100.00
2023-04-08T18:38:42.245Z,100.00
2023-04-08T18:41:25.489Z,99.00
2023-04-08T18:43:54.831Z,100.00
2023-04-08T18:46:24.632Z,100.00
2023-04-08T18:48:58.660Z,100.00
2023-04-08T18:51:27.797Z,100.00
2023-04-08T18:54:00.592Z,100.00
2023-04-08T18:56:38.281Z,100.00
2023-04-08T18:59:07.946Z,100.00
2023-04-08T19:01:37.493Z,99.39
2023-04-08T19:04:24.654Z,98.29
2023-04-08T19:06:53.362Z,99.07
2023-04-08T19:09:25.708Z,98.71
2023-04-08T19:11:54.407Z,99.19
2023-04-08T19:14:25.522Z,100.00
2023-04-08T19:16:56.522Z,100.00
2023-04-08T19:19:30.216Z,100.00
2023-04-08T19:22:07.744Z,100.00
2023-04-08T19:24:39.169Z,99.38
2023-04-08T19:27:09.806Z,99.35
2023-04-08T19:29:38.250Z,98.43
2023-04-08T19:32:06.788Z,100.00
2023-04-08T19:34:40.547Z,100.00
2023-04-08T19:37:10.659Z,100.00
2023-04-08T19:39:42.434Z,100.00
2023-04-08T19:42:14.124Z,100.00
2023-04-08T19:44:42.419Z,100.00
2023-04-08T19:47:19.944Z,100.00
2023-04-08T19:49:54.540Z,100.00
2023-04-08T19:52:25.571Z,100.00
2023-04-08T19:54:53.750Z,100.00
2023-04-08T19:57:23.097Z,100.00
2023-04-08T19:59:56.378Z,100.00
2023-04-08T20:02:25.562Z,100.00
2023-04-08T20:04:56.326Z,100.00
2023-04-08T20:07:24.921Z,100.00
2023-04-08T20:09:54.622Z,100.00
2023-04-08T20:12:24.911Z,100.00
2023-04-08T20:15:01.722Z,100.00
2023-04-08T20:17:33.161Z,100.00
2023-04-08T20:20:17.425Z,100.00
2023-04-08T20:22:47.886Z,100.00
2023-04-08T20:25:21.794Z,100.00
2023-04-08T20:27:54.019Z,100.00
2023-04-08T20:30:23.237Z,100.00
2023-04-08T20:32:52.361Z,100.00
2023-04-08T20:35:23.237Z,100.00
2023-04-08T20:37:54.856Z,100.00
2023-04-08T20:40:26.026Z,100.00
2023-04-08T20:42:55.833Z,100.00
2023-04-08T20:45:27.266Z,100.00
2023-04-08T20:47:57.958Z,100.00
2023-04-08T20:50:41.575Z,100.00
2023-04-08T20:53:12.923Z,100.00
2023-04-08T20:55:42.705Z,100.00
2023-04-08T20:58:23.106Z,100.00
2023-04-08T21:01:01.035Z,100.00
2023-04-08T21:03:32.993Z,100.00
2023-04-08T21:06:07.707Z,100.00
2023-04-08T21:08:38.708Z,100.00
2023-04-08T21:11:07.865Z,100.00
2023-04-08T21:13:39.049Z,100.00
2023-04-08T21:16:09.251Z,100.00
2023-04-08T21:18:39.578Z,100.00
2023-04-08T21:21:20.960Z,100.00
2023-04-08T21:23:52.207Z,100.00
2023-04-08T21:26:22.259Z,100.00
2023-04-08T21:28:53.384Z,100.00
2023-04-08T21:31:30.628Z,100.00
2023-04-08T21:34:02.577Z,100.00
2023-04-08T21:36:33.210Z,100.00
2023-04-08T21:39:03.730Z,100.00
2023-04-08T21:41:38.820Z,100.00
2023-04-08T21:44:10.256Z,100.00
2023-04-08T21:46:39.817Z,100.00
2023-04-08T21:49:08.084Z,100.00
2023-04-08T21:51:38.989Z,100.00
2023-04-08T21:54:15.354Z,100.00
2023-04-08T21:56:47.267Z,100.00
2023-04-08T21:59:20.102Z,100.00
2023-04-08T22:01:58.273Z,100.00
2023-04-08T22:04:30.022Z,100.00
2023-04-08T22:07:11.636Z,100.00
2023-04-08T22:09:43.585Z,100.00
2023-04-08T22:12:26.990Z,100.00
2023-04-08T22:14:57.749Z,100.00
2023-04-08T22:17:28.547Z,100.00
2023-04-08T22:20:04.933Z,100.00
2023-04-08T22:22:37.196Z,100.00
2023-04-08T22:25:15.373Z,100.00
2023-04-08T22:27:43.647Z,100.00
2023-04-08T22:30:17.009Z,100.00
2023-04-08T22:32:45.812Z,100.00
2023-04-08T22:35:19.848Z,100.00
2023-04-08T22:37:52.488Z,100.00
2023-04-08T22:40:28.500Z,100.00
2023-04-08T22:42:57.573Z,100.00
2023-04-08T22:45:29.032Z,100.00
2023-04-08T22:47:59.853Z,100.00
2023-04-08T22:50:37.191Z,100.00
2023-04-08T22:53:07.289Z,100.00
2023-04-08T22:55:44.072Z,100.00
2023-04-08T22:58:26.049Z,100.00
2023-04-08T23:00:55.890Z,100.00
2023-04-08T23:03:29.373Z,100.00
2023-04-08T23:05:58.515Z,100.00
2023-04-08T23:08:28.093Z,98.72
2023-04-08T23:11:11.020Z,99.44
2023-04-08T23:13:39.929Z,99.44
2023-04-08T23:16:10.707Z,98.03
2023-04-08T23:18:40.413Z,98.66
2023-04-08T23:21:10.738Z,97.83
2023-04-08T23:23:47.789Z,98.75
2023-04-08T23:26:21.946Z,99.63
2023-04-08T23:28:54.304Z,100.00
2023-04-08T23:31:26.204Z,100.00
2023-04-08T23:33:56.806Z,100.00
2023-04-08T23:36:28.361Z,100.00
2023-04-08T23:39:00.253Z,99.92
2023-04-08T23:41:34.238Z,99.99
2023-04-08T23:44:06.672Z,100.00
2023-04-08T23:46:35.923Z,100.00
2023-04-08T23:49:04.702Z,100.00
2023-04-08T23:51:34.331Z,100.00
2023-04-08T23:54:04.477Z,100.00
2023-04-08T23:56:33.822Z,100.00
2023-04-08T23:59:16.645Z,100.00
